Terminal Aerodrome Forecast
Issued by NWS Louisville, KY

Home | Current Version | Previous Version | Text Only | Print | Product List | Glossary On
Versions: 1 2 3 4 5 6 7 8 9 10 11 12
000
FTUS43 KLMK 211100
TAFBWG
TAF
KBWG 211120Z 2112/2212 00000KT P6SM BKN250
     FM211400 23011KT P6SM SCT060 BKN150
     FM220200 22006KT P6SM VCSH BKN060
     FM220700 24007KT P6SM VCSH SCT025 BKN035=

USA.gov is the U.S. government's official web portal to all federal, state and local government web resources and services.